sensor_id;sensor_type;location;lat;lon;timestamp;pressure;altitude;pressure_sealevel;temperature;humidity
11525;BME280;5819;49.648;8.330;2022-09-24T00:01:45;100147.66;;;12.12;96.83
11525;BME280;5819;49.648;8.330;2022-09-24T00:04:13;100146.75;;;12.13;96.61
11525;BME280;5819;49.648;8.330;2022-09-24T00:06:42;100144.94;;;12.15;96.80
11525;BME280;5819;49.648;8.330;2022-09-24T00:09:13;100134.34;;;12.18;97.09
11525;BME280;5819;49.648;8.330;2022-09-24T00:11:42;100135.19;;;12.19;96.92
11525;BME280;5819;49.648;8.330;2022-09-24T00:14:11;100133.56;;;12.16;97.07
11525;BME280;5819;49.648;8.330;2022-09-24T00:16:40;100133.47;;;12.18;96.80
11525;BME280;5819;49.648;8.330;2022-09-24T00:19:10;100136.84;;;12.20;96.64
11525;BME280;5819;49.648;8.330;2022-09-24T00:21:40;100135.75;;;12.24;96.19
11525;BME280;5819;49.648;8.330;2022-09-24T00:24:09;100128.78;;;12.25;96.33
11525;BME280;5819;49.648;8.330;2022-09-24T00:27:00;100133.31;;;12.21;95.85
11525;BME280;5819;49.648;8.330;2022-09-24T00:29:29;100128.09;;;12.21;96.00
11525;BME280;5819;49.648;8.330;2022-09-24T00:32:00;100126.16;;;12.25;95.75
11525;BME280;5819;49.648;8.330;2022-09-24T00:34:29;100121.56;;;12.30;95.85
11525;BME280;5819;49.648;8.330;2022-09-24T00:36:57;100122.31;;;12.32;94.88
11525;BME280;5819;49.648;8.330;2022-09-24T00:39:25;100118.88;;;12.31;94.97
11525;BME280;5819;49.648;8.330;2022-09-24T00:41:53;100113.91;;;12.27;94.66
11525;BME280;5819;49.648;8.330;2022-09-24T00:44:50;100118.75;;;12.17;94.42
11525;BME280;5819;49.648;8.330;2022-09-24T00:47:29;100112.88;;;12.13;95.72
11525;BME280;5819;49.648;8.330;2022-09-24T00:50:03;100118.16;;;12.12;95.66
11525;BME280;5819;49.648;8.330;2022-09-24T00:52:34;100114.00;;;12.08;96.60
11525;BME280;5819;49.648;8.330;2022-09-24T00:55:06;100102.06;;;12.04;96.80
11525;BME280;5819;49.648;8.330;2022-09-24T00:57:35;100099.19;;;11.93;98.44
11525;BME280;5819;49.648;8.330;2022-09-24T01:00:08;100092.91;;;11.80;100.00
11525;BME280;5819;49.648;8.330;2022-09-24T01:02:38;100081.50;;;11.82;100.00
11525;BME280;5819;49.648;8.330;2022-09-24T01:05:08;100080.72;;;11.80;100.00
11525;BME280;5819;49.648;8.330;2022-09-24T01:07:36;100072.59;;;11.69;100.00
11525;BME280;5819;49.648;8.330;2022-09-24T01:10:05;100073.84;;;11.62;100.00
11525;BME280;5819;49.648;8.330;2022-09-24T01:12:39;100083.63;;;11.40;100.00
11525;BME280;5819;49.648;8.330;2022-09-24T01:15:18;100077.22;;;11.30;100.00
11525;BME280;5819;49.648;8.330;2022-09-24T01:17:53;100077.69;;;11.38;100.00
11525;BME280;5819;49.648;8.330;2022-09-24T01:23:42;100071.94;;;11.31;100.00
11525;BME280;5819;49.648;8.330;2022-09-24T01:26:27;100081.66;;;11.10;100.00
11525;BME280;5819;49.648;8.330;2022-09-24T01:29:18;100082.94;;;11.02;100.00
11525;BME280;5819;49.648;8.330;2022-09-24T01:31:54;100074.13;;;11.04;100.00
11525;BME280;5819;49.648;8.330;2022-09-24T01:34:32;100085.81;;;10.96;100.00
11525;BME280;5819;49.648;8.330;2022-09-24T01:37:02;100069.56;;;10.73;100.00
11525;BME280;5819;49.648;8.330;2022-09-24T01:39:32;100074.97;;;10.69;100.00
11525;BME280;5819;49.648;8.330;2022-09-24T01:42:00;100074.66;;;10.58;100.00
11525;BME280;5819;49.648;8.330;2022-09-24T01:44:30;100069.09;;;10.47;100.00
11525;BME280;5819;49.648;8.330;2022-09-24T01:46:58;100063.06;;;10.46;100.00
11525;BME280;5819;49.648;8.330;2022-09-24T01:49:26;100067.78;;;10.38;100.00
11525;BME280;5819;49.648;8.330;2022-09-24T01:51:56;100063.03;;;10.27;100.00
11525;BME280;5819;49.648;8.330;2022-09-24T01:54:27;100066.19;;;10.15;100.00
11525;BME280;5819;49.648;8.330;2022-09-24T01:57:01;100062.00;;;10.11;100.00
11525;BME280;5819;49.648;8.330;2022-09-24T01:59:36;100056.75;;;10.13;100.00
11525;BME280;5819;49.648;8.330;2022-09-24T02:02:11;100050.50;;;10.18;100.00
11525;BME280;5819;49.648;8.330;2022-09-24T02:04:44;100048.91;;;10.14;100.00
11525;BME280;5819;49.648;8.330;2022-09-24T02:07:16;100045.28;;;10.18;100.00
11525;BME280;5819;49.648;8.330;2022-09-24T02:09:48;100038.69;;;10.30;100.00
11525;BME280;5819;49.648;8.330;2022-09-24T02:12:19;100042.88;;;10.32;100.00
11525;BME280;5819;49.648;8.330;2022-09-24T02:14:52;100047.31;;;10.30;100.00
11525;BME280;5819;49.648;8.330;2022-09-24T02:17:21;100034.03;;;10.37;100.00
11525;BME280;5819;49.648;8.330;2022-09-24T02:19:52;100039.78;;;10.43;100.00
11525;BME280;5819;49.648;8.330;2022-09-24T02:22:22;100047.66;;;10.42;100.00
11525;BME280;5819;49.648;8.330;2022-09-24T02:24:53;100044.16;;;10.43;100.00
11525;BME280;5819;49.648;8.330;2022-09-24T02:27:23;100049.97;;;10.48;100.00
11525;BME280;5819;49.648;8.330;2022-09-24T02:29:55;100054.41;;;10.46;100.00
11525;BME280;5819;49.648;8.330;2022-09-24T02:32:25;100057.44;;;10.37;100.00
11525;BME280;5819;49.648;8.330;2022-09-24T02:34:56;100053.22;;;10.34;100.00
11525;BME280;5819;49.648;8.330;2022-09-24T02:37:28;100055.97;;;10.31;100.00
11525;BME280;5819;49.648;8.330;2022-09-24T02:39:56;100054.16;;;10.13;100.00
11525;BME280;5819;49.648;8.330;2022-09-24T02:42:23;100051.78;;;10.08;100.00
11525;BME280;5819;49.648;8.330;2022-09-24T02:44:51;100043.38;;;9.83;100.00
11525;BME280;5819;49.648;8.330;2022-09-24T02:47:24;100052.22;;;9.79;100.00
11525;BME280;5819;49.648;8.330;2022-09-24T02:49:52;100047.03;;;9.79;100.00
11525;BME280;5819;49.648;8.330;2022-09-24T02:52:21;100039.03;;;9.83;100.00
11525;BME280;5819;49.648;8.330;2022-09-24T02:54:49;100041.28;;;9.91;100.00
11525;BME280;5819;49.648;8.330;2022-09-24T02:57:18;100042.50;;;10.03;100.00
11525;BME280;5819;49.648;8.330;2022-09-24T02:59:46;100044.13;;;10.05;100.00
11525;BME280;5819;49.648;8.330;2022-09-24T03:02:14;100043.91;;;10.10;100.00
11525;BME280;5819;49.648;8.330;2022-09-24T03:04:44;100043.97;;;10.08;100.00
11525;BME280;5819;49.648;8.330;2022-09-24T03:07:12;100034.84;;;10.00;100.00
11525;BME280;5819;49.648;8.330;2022-09-24T03:09:41;100027.69;;;10.05;100.00
11525;BME280;5819;49.648;8.330;2022-09-24T03:12:08;100033.38;;;10.13;100.00
11525;BME280;5819;49.648;8.330;2022-09-24T03:14:36;100036.78;;;10.15;100.00
11525;BME280;5819;49.648;8.330;2022-09-24T03:17:04;100026.56;;;10.10;100.00
11525;BME280;5819;49.648;8.330;2022-09-24T03:19:32;100028.72;;;10.01;100.00
11525;BME280;5819;49.648;8.330;2022-09-24T03:22:01;100016.22;;;9.90;100.00
11525;BME280;5819;49.648;8.330;2022-09-24T03:24:29;100018.53;;;9.96;100.00
11525;BME280;5819;49.648;8.330;2022-09-24T03:26:57;100019.09;;;9.84;100.00
11525;BME280;5819;49.648;8.330;2022-09-24T03:29:25;100014.25;;;9.76;100.00
11525;BME280;5819;49.648;8.330;2022-09-24T03:32:07;100008.50;;;9.70;100.00
11525;BME280;5819;49.648;8.330;2022-09-24T03:34:35;100020.53;;;9.71;100.00
11525;BME280;5819;49.648;8.330;2022-09-24T03:37:04;100020.34;;;9.75;100.00
11525;BME280;5819;49.648;8.330;2022-09-24T03:39:32;100011.59;;;9.78;100.00
11525;BME280;5819;49.648;8.330;2022-09-24T03:42:00;100014.75;;;9.84;100.00
11525;BME280;5819;49.648;8.330;2022-09-24T03:44:28;100018.13;;;9.86;100.00
11525;BME280;5819;49.648;8.330;2022-09-24T03:46:56;100019.69;;;9.91;100.00
11525;BME280;5819;49.648;8.330;2022-09-24T03:49:24;100014.25;;;9.95;100.00
11525;BME280;5819;49.648;8.330;2022-09-24T03:51:52;100013.63;;;9.90;100.00
11525;BME280;5819;49.648;8.330;2022-09-24T03:54:21;100005.91;;;9.88;100.00
11525;BME280;5819;49.648;8.330;2022-09-24T03:56:49;100002.53;;;9.86;100.00
11525;BME280;5819;49.648;8.330;2022-09-24T03:59:17;100001.56;;;9.89;100.00
11525;BME280;5819;49.648;8.330;2022-09-24T04:01:45;99997.25;;;9.88;100.00
11525;BME280;5819;49.648;8.330;2022-09-24T04:04:13;100004.41;;;9.83;100.00
11525;BME280;5819;49.648;8.330;2022-09-24T04:06:41;100003.59;;;9.82;100.00
11525;BME280;5819;49.648;8.330;2022-09-24T04:09:10;100001.81;;;9.83;100.00
11525;BME280;5819;49.648;8.330;2022-09-24T04:11:39;100007.78;;;9.85;100.00
11525;BME280;5819;49.648;8.330;2022-09-24T04:14:08;100010.66;;;9.79;100.00
11525;BME280;5819;49.648;8.330;2022-09-24T04:16:36;100003.19;;;9.71;100.00
11525;BME280;5819;49.648;8.330;2022-09-24T04:19:04;100003.84;;;9.58;100.00
11525;BME280;5819;49.648;8.330;2022-09-24T04:21:33;100008.16;;;9.38;100.00
11525;BME280;5819;49.648;8.330;2022-09-24T04:24:01;100009.25;;;9.33;100.00
11525;BME280;5819;49.648;8.330;2022-09-24T04:26:29;100003.06;;;9.35;100.00
11525;BME280;5819;49.648;8.330;2022-09-24T04:28:59;100010.50;;;9.43;100.00
11525;BME280;5819;49.648;8.330;2022-09-24T04:31:27;100004.00;;;9.34;100.00
11525;BME280;5819;49.648;8.330;2022-09-24T04:33:55;99998.00;;;9.32;100.00
11525;BME280;5819;49.648;8.330;2022-09-24T04:36:24;99998.66;;;9.37;100.00
11525;BME280;5819;49.648;8.330;2022-09-24T04:38:52;99995.28;;;9.35;100.00
11525;BME280;5819;49.648;8.330;2022-09-24T04:41:20;100006.69;;;9.31;100.00
11525;BME280;5819;49.648;8.330;2022-09-24T04:43:48;100000.28;;;9.40;100.00
11525;BME280;5819;49.648;8.330;2022-09-24T04:46:18;99999.22;;;9.44;100.00
11525;BME280;5819;49.648;8.330;2022-09-24T04:48:46;99998.31;;;9.45;100.00
11525;BME280;5819;49.648;8.330;2022-09-24T04:51:14;99996.44;;;9.49;100.00
11525;BME280;5819;49.648;8.330;2022-09-24T04:53:43;99987.59;;;9.53;100.00
11525;BME280;5819;49.648;8.330;2022-09-24T04:56:13;99991.19;;;9.50;100.00
11525;BME280;5819;49.648;8.330;2022-09-24T04:58:41;100002.72;;;9.43;100.00
11525;BME280;5819;49.648;8.330;2022-09-24T05:01:09;100008.38;;;9.32;100.00
11525;BME280;5819;49.648;8.330;2022-09-24T05:03:40;99998.56;;;9.39;100.00
11525;BME280;5819;49.648;8.330;2022-09-24T05:06:08;99995.72;;;9.45;100.00
11525;BME280;5819;49.648;8.330;2022-09-24T05:08:36;99987.75;;;9.50;100.00
11525;BME280;5819;49.648;8.330;2022-09-24T05:11:04;99991.56;;;9.61;100.00
11525;BME280;5819;49.648;8.330;2022-09-24T05:13:32;99991.97;;;9.71;100.00
11525;BME280;5819;49.648;8.330;2022-09-24T05:16:01;99996.13;;;9.75;100.00
11525;BME280;5819;49.648;8.330;2022-09-24T05:18:29;100007.16;;;9.80;100.00
11525;BME280;5819;49.648;8.330;2022-09-24T05:20:59;100002.94;;;9.77;100.00
11525;BME280;5819;49.648;8.330;2022-09-24T05:23:26;100009.84;;;9.78;100.00
11525;BME280;5819;49.648;8.330;2022-09-24T05:25:54;100001.75;;;9.84;100.00
11525;BME280;5819;49.648;8.330;2022-09-24T05:28:40;100000.00;;;9.85;100.00
11525;BME280;5819;49.648;8.330;2022-09-24T05:31:08;100013.00;;;9.85;100.00
11525;BME280;5819;49.648;8.330;2022-09-24T05:33:37;100010.66;;;9.79;100.00
11525;BME280;5819;49.648;8.330;2022-09-24T05:36:06;100004.22;;;9.87;100.00
11525;BME280;5819;49.648;8.330;2022-09-24T05:38:34;100005.06;;;9.88;100.00
11525;BME280;5819;49.648;8.330;2022-09-24T05:41:07;100004.84;;;9.93;100.00
11525;BME280;5819;49.648;8.330;2022-09-24T05:43:34;99999.38;;;9.99;100.00
11525;BME280;5819;49.648;8.330;2022-09-24T05:46:03;100017.97;;;10.08;100.00
11525;BME280;5819;49.648;8.330;2022-09-24T05:48:32;100016.03;;;10.13;100.00
11525;BME280;5819;49.648;8.330;2022-09-24T05:51:00;100021.09;;;10.16;100.00
11525;BME280;5819;49.648;8.330;2022-09-24T05:53:29;100020.16;;;10.19;100.00
11525;BME280;5819;49.648;8.330;2022-09-24T05:55:57;100022.59;;;10.22;100.00
11525;BME280;5819;49.648;8.330;2022-09-24T05:58:26;100018.03;;;10.27;100.00
11525;BME280;5819;49.648;8.330;2022-09-24T06:00:54;100031.94;;;10.26;100.00
11525;BME280;5819;49.648;8.330;2022-09-24T06:03:22;100021.34;;;10.30;100.00
11525;BME280;5819;49.648;8.330;2022-09-24T06:05:50;100016.72;;;10.36;100.00
11525;BME280;5819;49.648;8.330;2022-09-24T06:08:19;100012.22;;;10.39;100.00
11525;BME280;5819;49.648;8.330;2022-09-24T06:10:48;100014.22;;;10.34;100.00
11525;BME280;5819;49.648;8.330;2022-09-24T06:13:18;100013.72;;;10.45;100.00
11525;BME280;5819;49.648;8.330;2022-09-24T06:15:48;100004.63;;;10.53;100.00
11525;BME280;5819;49.648;8.330;2022-09-24T06:18:16;100010.31;;;10.61;100.00
11525;BME280;5819;49.648;8.330;2022-09-24T06:20:44;100004.81;;;10.67;100.00
11525;BME280;5819;49.648;8.330;2022-09-24T06:23:12;100002.97;;;10.69;100.00
11525;BME280;5819;49.648;8.330;2022-09-24T06:25:41;100008.03;;;10.72;100.00
11525;BME280;5819;49.648;8.330;2022-09-24T06:28:10;100011.25;;;10.77;100.00
11525;BME280;5819;49.648;8.330;2022-09-24T06:30:38;100015.56;;;10.78;100.00
11525;BME280;5819;49.648;8.330;2022-09-24T06:33:08;100021.59;;;10.79;100.00
11525;BME280;5819;49.648;8.330;2022-09-24T06:35:38;100023.94;;;10.84;100.00
11525;BME280;5819;49.648;8.330;2022-09-24T06:38:08;100034.16;;;10.88;100.00
11525;BME280;5819;49.648;8.330;2022-09-24T06:40:37;100042.19;;;11.01;100.00
11525;BME280;5819;49.648;8.330;2022-09-24T06:43:06;100031.25;;;11.11;100.00
11525;BME280;5819;49.648;8.330;2022-09-24T06:45:36;100038.94;;;11.14;100.00
11525;BME280;5819;49.648;8.330;2022-09-24T06:48:04;100037.91;;;11.17;100.00
11525;BME280;5819;49.648;8.330;2022-09-24T06:50:33;100048.13;;;11.21;100.00
11525;BME280;5819;49.648;8.330;2022-09-24T06:53:06;100042.75;;;11.24;100.00
11525;BME280;5819;49.648;8.330;2022-09-24T06:55:35;100040.81;;;11.28;100.00
11525;BME280;5819;49.648;8.330;2022-09-24T06:58:05;100040.22;;;11.23;100.00
11525;BME280;5819;49.648;8.330;2022-09-24T07:00:34;100039.38;;;11.22;100.00
11525;BME280;5819;49.648;8.330;2022-09-24T07:03:04;100035.63;;;11.28;100.00
11525;BME280;5819;49.648;8.330;2022-09-24T07:05:33;100040.75;;;11.30;100.00
11525;BME280;5819;49.648;8.330;2022-09-24T07:08:08;100036.56;;;11.27;100.00
11525;BME280;5819;49.648;8.330;2022-09-24T07:10:36;100038.84;;;11.33;100.00
11525;BME280;5819;49.648;8.330;2022-09-24T07:13:07;100041.44;;;11.33;100.00
11525;BME280;5819;49.648;8.330;2022-09-24T07:15:35;100032.66;;;11.68;100.00
11525;BME280;5819;49.648;8.330;2022-09-24T07:18:05;100040.34;;;11.71;100.00
11525;BME280;5819;49.648;8.330;2022-09-24T07:20:33;100045.63;;;11.70;100.00
11525;BME280;5819;49.648;8.330;2022-09-24T07:23:03;100037.50;;;11.76;100.00
11525;BME280;5819;49.648;8.330;2022-09-24T07:25:31;100035.44;;;11.83;100.00
11525;BME280;5819;49.648;8.330;2022-09-24T07:28:03;100045.53;;;11.89;100.00
11525;BME280;5819;49.648;8.330;2022-09-24T07:30:32;100055.31;;;12.01;100.00
11525;BME280;5819;49.648;8.330;2022-09-24T07:33:00;100050.44;;;12.10;100.00
11525;BME280;5819;49.648;8.330;2022-09-24T07:35:29;100049.88;;;12.21;100.00
11525;BME280;5819;49.648;8.330;2022-09-24T07:37:59;100059.31;;;12.24;100.00
11525;BME280;5819;49.648;8.330;2022-09-24T07:40:28;100065.78;;;12.32;100.00
11525;BME280;5819;49.648;8.330;2022-09-24T07:42:56;100069.22;;;12.33;100.00
11525;BME280;5819;49.648;8.330;2022-09-24T07:45:25;100066.97;;;12.27;100.00
11525;BME280;5819;49.648;8.330;2022-09-24T07:47:58;100063.25;;;12.31;100.00
11525;BME280;5819;49.648;8.330;2022-09-24T07:50:27;100067.97;;;12.40;100.00
11525;BME280;5819;49.648;8.330;2022-09-24T07:52:57;100064.00;;;12.48;100.00
11525;BME280;5819;49.648;8.330;2022-09-24T07:55:26;100065.03;;;12.61;100.00
11525;BME280;5819;49.648;8.330;2022-09-24T07:57:55;100070.75;;;12.68;100.00
11525;BME280;5819;49.648;8.330;2022-09-24T08:00:23;100066.22;;;12.72;100.00
11525;BME280;5819;49.648;8.330;2022-09-24T08:02:51;100056.94;;;12.82;100.00
11525;BME280;5819;49.648;8.330;2022-09-24T08:05:21;100058.19;;;12.90;100.00
11525;BME280;5819;49.648;8.330;2022-09-24T08:07:51;100064.03;;;13.09;100.00
11525;BME280;5819;49.648;8.330;2022-09-24T08:10:22;100056.06;;;13.12;100.00
11525;BME280;5819;49.648;8.330;2022-09-24T08:12:50;100054.78;;;13.20;100.00
11525;BME280;5819;49.648;8.330;2022-09-24T08:15:19;100059.31;;;13.16;98.28
11525;BME280;5819;49.648;8.330;2022-09-24T08:17:48;100051.16;;;13.36;100.00
11525;BME280;5819;49.648;8.330;2022-09-24T08:20:17;100047.19;;;13.45;100.00
11525;BME280;5819;49.648;8.330;2022-09-24T08:22:44;100053.19;;;13.61;100.00
11525;BME280;5819;49.648;8.330;2022-09-24T08:25:13;100049.25;;;13.68;98.90
11525;BME280;5819;49.648;8.330;2022-09-24T08:27:42;100051.50;;;13.60;97.33
11525;BME280;5819;49.648;8.330;2022-09-24T08:30:11;100051.50;;;13.60;98.55
11525;BME280;5819;49.648;8.330;2022-09-24T08:32:39;100050.50;;;13.63;99.32
11525;BME280;5819;49.648;8.330;2022-09-24T08:35:07;100054.03;;;13.62;98.22
11525;BME280;5819;49.648;8.330;2022-09-24T08:37:35;100054.69;;;13.65;100.00
11525;BME280;5819;49.648;8.330;2022-09-24T08:40:05;100051.50;;;13.60;100.00
11525;BME280;5819;49.648;8.330;2022-09-24T08:42:38;100046.25;;;13.60;100.00
11525;BME280;5819;49.648;8.330;2022-09-24T08:45:11;100051.34;;;13.63;100.00
11525;BME280;5819;49.648;8.330;2022-09-24T08:47:59;100056.75;;;13.74;96.54
11525;BME280;5819;49.648;8.330;2022-09-24T08:50:33;100050.94;;;13.69;99.68
11525;BME280;5819;49.648;8.330;2022-09-24T08:53:11;100054.97;;;13.75;99.60
11525;BME280;5819;49.648;8.330;2022-09-24T08:55:45;100058.56;;;13.88;100.00
11525;BME280;5819;49.648;8.330;2022-09-24T08:58:37;100061.53;;;13.96;99.84
11525;BME280;5819;49.648;8.330;2022-09-24T09:01:21;100059.66;;;14.12;99.12
11525;BME280;5819;49.648;8.330;2022-09-24T09:03:57;100062.94;;;14.16;98.84
11525;BME280;5819;49.648;8.330;2022-09-24T09:06:50;100063.00;;;14.14;95.58
11525;BME280;5819;49.648;8.330;2022-09-24T09:09:24;100060.75;;;14.22;96.05
11525;BME280;5819;49.648;8.330;2022-09-24T09:11:58;100062.47;;;14.23;98.42
11525;BME280;5819;49.648;8.330;2022-09-24T09:14:34;100062.53;;;14.22;99.52
11525;BME280;5819;49.648;8.330;2022-09-24T09:17:15;100070.59;;;14.19;97.65
11525;BME280;5819;49.648;8.330;2022-09-24T09:19:53;100073.00;;;14.22;96.39
11525;BME280;5819;49.648;8.330;2022-09-24T09:22:25;100069.75;;;14.04;97.49
11525;BME280;5819;49.648;8.330;2022-09-24T09:25:02;100064.34;;;14.07;95.76
11525;BME280;5819;49.648;8.330;2022-09-24T09:27:30;100062.34;;;14.25;97.17
11525;BME280;5819;49.648;8.330;2022-09-24T09:30:03;100047.66;;;14.50;96.54
11525;BME280;5819;49.648;8.330;2022-09-24T09:32:58;100056.81;;;14.58;92.64
11525;BME280;5819;49.648;8.330;2022-09-24T09:35:32;100049.06;;;14.83;91.63
11525;BME280;5819;49.648;8.330;2022-09-24T09:38:12;100055.16;;;15.23;91.27
11525;BME280;5819;49.648;8.330;2022-09-24T09:40:51;100051.03;;;15.58;87.21
11525;BME280;5819;49.648;8.330;2022-09-24T09:43:23;100059.44;;;15.76;84.35
11525;BME280;5819;49.648;8.330;2022-09-24T09:46:00;100063.31;;;15.70;84.69
11525;BME280;5819;49.648;8.330;2022-09-24T09:48:42;100055.88;;;15.64;84.20
11525;BME280;5819;49.648;8.330;2022-09-24T09:51:16;100062.06;;;15.76;85.32
11525;BME280;5819;49.648;8.330;2022-09-24T09:53:56;100062.78;;;15.78;83.90
11525;BME280;5819;49.648;8.330;2022-09-24T09:56:25;100059.31;;;15.77;82.26
11525;BME280;5819;49.648;8.330;2022-09-24T09:59:01;100057.75;;;15.75;82.34
11525;BME280;5819;49.648;8.330;2022-09-24T10:01:34;100048.13;;;15.88;83.90
11525;BME280;5819;49.648;8.330;2022-09-24T10:04:04;100059.63;;;15.85;82.65
11525;BME280;5819;49.648;8.330;2022-09-24T10:06:33;100056.28;;;15.71;82.30
11525;BME280;5819;49.648;8.330;2022-09-24T10:09:07;100047.19;;;15.76;82.94
11525;BME280;5819;49.648;8.330;2022-09-24T10:11:35;100045.72;;;15.72;81.75
11525;BME280;5819;49.648;8.330;2022-09-24T10:14:03;100040.97;;;15.90;82.80
11525;BME280;5819;49.648;8.330;2022-09-24T10:16:36;100044.41;;;16.03;82.46
11525;BME280;5819;49.648;8.330;2022-09-24T10:19:14;100042.13;;;15.99;82.47
11525;BME280;5819;49.648;8.330;2022-09-24T10:21:43;100036.03;;;15.85;82.44
11525;BME280;5819;49.648;8.330;2022-09-24T10:24:15;100036.47;;;15.79;82.51
11525;BME280;5819;49.648;8.330;2022-09-24T10:26:45;100041.28;;;15.73;82.58
11525;BME280;5819;49.648;8.330;2022-09-24T10:29:16;100043.59;;;15.65;83.62
11525;BME280;5819;49.648;8.330;2022-09-24T10:32:03;100042.63;;;15.53;83.85
11525;BME280;5819;49.648;8.330;2022-09-24T10:34:33;100042.47;;;15.56;84.38
11525;BME280;5819;49.648;8.330;2022-09-24T10:37:02;100032.91;;;15.68;82.19
11525;BME280;5819;49.648;8.330;2022-09-24T10:39:36;100023.22;;;15.93;83.54
11525;BME280;5819;49.648;8.330;2022-09-24T10:42:05;100024.91;;;16.07;81.90
11525;BME280;5819;49.648;8.330;2022-09-24T10:44:35;100019.19;;;16.13;82.56
11525;BME280;5819;49.648;8.330;2022-09-24T10:47:16;100017.31;;;16.15;80.64
11525;BME280;5819;49.648;8.330;2022-09-24T10:50:13;100010.56;;;16.36;81.06
11525;BME280;5819;49.648;8.330;2022-09-24T10:52:50;99993.34;;;16.56;81.67
11525;BME280;5819;49.648;8.330;2022-09-24T10:55:43;99992.88;;;16.75;81.16
11525;BME280;5819;49.648;8.330;2022-09-24T10:58:30;99996.63;;;16.83;79.27
11525;BME280;5819;49.648;8.330;2022-09-24T11:01:13;99994.66;;;16.74;77.74
11525;BME280;5819;49.648;8.330;2022-09-24T11:04:04;99996.91;;;17.03;78.51
11525;BME280;5819;49.648;8.330;2022-09-24T11:06:48;100001.56;;;16.99;76.33
11525;BME280;5819;49.648;8.330;2022-09-24T11:09:27;99989.59;;;17.30;77.64
11525;BME280;5819;49.648;8.330;2022-09-24T11:12:04;99983.69;;;17.84;75.37
11525;BME280;5819;49.648;8.330;2022-09-24T11:14:58;99992.59;;;17.37;77.43
11525;BME280;5819;49.648;8.330;2022-09-24T11:17:46;99995.84;;;17.51;78.18
11525;BME280;5819;49.648;8.330;2022-09-24T11:20:28;100003.13;;;17.48;78.21
11525;BME280;5819;49.648;8.330;2022-09-24T11:23:16;100008.25;;;17.38;78.39
11525;BME280;5819;49.648;8.330;2022-09-24T11:25:53;100004.41;;;17.31;76.79
11525;BME280;5819;49.648;8.330;2022-09-24T11:28:40;100002.13;;;17.26;77.13
11525;BME280;5819;49.648;8.330;2022-09-24T11:31:18;100002.03;;;17.28;77.26
11525;BME280;5819;49.648;8.330;2022-09-24T11:34:03;99997.63;;;17.40;78.65
11525;BME280;5819;49.648;8.330;2022-09-24T11:36:46;99991.88;;;17.46;76.86
11525;BME280;5819;49.648;8.330;2022-09-24T11:39:29;99988.44;;;17.45;76.64
11525;BME280;5819;49.648;8.330;2022-09-24T11:42:07;99988.88;;;17.39;76.95
11525;BME280;5819;49.648;8.330;2022-09-24T11:45:11;99983.06;;;17.58;77.42
11525;BME280;5819;49.648;8.330;2022-09-24T11:47:59;99984.41;;;17.86;76.03
11525;BME280;5819;49.648;8.330;2022-09-24T11:50:39;99985.00;;;17.78;76.06
11525;BME280;5819;49.648;8.330;2022-09-24T11:53:20;99984.41;;;17.63;75.77
11525;BME280;5819;49.648;8.330;2022-09-24T11:55:55;99973.97;;;17.51;77.24
11525;BME280;5819;49.648;8.330;2022-09-24T11:58:28;99976.47;;;17.41;76.78
11525;BME280;5819;49.648;8.330;2022-09-24T12:01:00;99980.75;;;17.42;76.27
11525;BME280;5819;49.648;8.330;2022-09-24T12:03:36;99973.59;;;17.33;75.77
11525;BME280;5819;49.648;8.330;2022-09-24T12:06:09;99963.34;;;17.52;76.64
11525;BME280;5819;49.648;8.330;2022-09-24T12:08:41;99960.13;;;17.71;75.11
11525;BME280;5819;49.648;8.330;2022-09-24T12:11:15;99962.66;;;17.84;74.02
11525;BME280;5819;49.648;8.330;2022-09-24T12:13:47;99951.75;;;17.88;74.28
11525;BME280;5819;49.648;8.330;2022-09-24T12:16:20;99942.91;;;17.89;73.11
11525;BME280;5819;49.648;8.330;2022-09-24T12:18:54;99945.31;;;17.92;74.42
11525;BME280;5819;49.648;8.330;2022-09-24T12:21:29;99938.91;;;18.06;74.59
11525;BME280;5819;49.648;8.330;2022-09-24T12:24:02;99942.13;;;18.20;74.63
11525;BME280;5819;49.648;8.330;2022-09-24T12:26:36;99940.19;;;18.22;74.32
11525;BME280;5819;49.648;8.330;2022-09-24T12:29:24;99942.25;;;18.19;74.17
11525;BME280;5819;49.648;8.330;2022-09-24T12:32:18;99937.16;;;18.38;73.50
11525;BME280;5819;49.648;8.330;2022-09-24T12:35:09;99936.22;;;18.39;74.59
11525;BME280;5819;49.648;8.330;2022-09-24T12:37:40;99932.16;;;18.35;74.47
11525;BME280;5819;49.648;8.330;2022-09-24T12:40:25;99936.28;;;18.17;72.75
11525;BME280;5819;49.648;8.330;2022-09-24T12:43:06;99930.69;;;17.99;74.36
11525;BME280;5819;49.648;8.330;2022-09-24T12:45:39;99921.50;;;18.25;75.36
11525;BME280;5819;49.648;8.330;2022-09-24T12:48:13;99925.19;;;18.45;73.97
11525;BME280;5819;49.648;8.330;2022-09-24T12:50:54;99917.53;;;19.15;71.04
11525;BME280;5819;49.648;8.330;2022-09-24T12:53:29;99931.22;;;19.30;70.67
11525;BME280;5819;49.648;8.330;2022-09-24T12:56:00;99933.63;;;18.92;70.69
11525;BME280;5819;49.648;8.330;2022-09-24T12:58:37;99938.59;;;18.74;71.78
11525;BME280;5819;49.648;8.330;2022-09-24T13:01:10;99935.84;;;18.44;72.56
11525;BME280;5819;49.648;8.330;2022-09-24T13:03:40;99936.97;;;18.19;73.04
11525;BME280;5819;49.648;8.330;2022-09-24T13:06:22;99928.59;;;18.14;74.22
11525;BME280;5819;49.648;8.330;2022-09-24T13:08:57;99932.88;;;18.26;73.96
11525;BME280;5819;49.648;8.330;2022-09-24T13:11:27;99924.75;;;18.29;73.58
11525;BME280;5819;49.648;8.330;2022-09-24T13:14:00;99922.25;;;18.28;73.30
11525;BME280;5819;49.648;8.330;2022-09-24T13:16:36;99921.66;;;18.24;74.62
11525;BME280;5819;49.648;8.330;2022-09-24T13:19:20;99918.81;;;18.16;73.57
11525;BME280;5819;49.648;8.330;2022-09-24T13:21:56;99915.09;;;18.50;75.10
11525;BME280;5819;49.648;8.330;2022-09-24T13:24:26;99907.34;;;18.81;74.23
11525;BME280;5819;49.648;8.330;2022-09-24T13:27:07;99908.38;;;18.89;73.97
11525;BME280;5819;49.648;8.330;2022-09-24T13:29:38;99909.19;;;18.90;73.87